Chesterfield, United Kingdom
Current Conditions -  °F | °C
As of 11:20 AM on Saturday 25 Oct 2014 (Local Time) from EGCN Reporting Station
Clear Clear  
Wind Chill: 54°   Ceiling: Unl
Heat Index: 54°   Visibility: 6mi
Dew Point: 48°   Wind: 14mph
Humidity: 82%   Direction: 190°S
Pressure: 29.97"   Gusts: NA
Location:  53.26°N, 1.39°W
Report Text: EGCN 251020Z 19012KT CAVOK 12/09 Q1015
Loading
Personal Weather Stations






























Interactive Weather Map New forecast layout! Learn more

10-Day Weather Forecast

Advertisements
Track Severe Weather on mobile